createdAt,value
2018-06-22T00:01:45.069Z,10.07
2018-06-22T00:04:12.748Z,11.73
2018-06-22T00:06:40.238Z,9.30
2018-06-22T00:09:09.312Z,12.00
2018-06-22T00:11:37.252Z,6.17
2018-06-22T00:14:04.932Z,9.10
2018-06-22T00:16:32.438Z,10.97
2018-06-22T00:18:59.921Z,8.93
2018-06-22T00:21:27.454Z,9.27
2018-06-22T00:23:54.984Z,13.97
2018-06-22T00:26:22.495Z,13.40
2018-06-22T00:28:50.031Z,7.57
2018-06-22T00:31:17.509Z,7.60
2018-06-22T00:33:44.995Z,8.73
2018-06-22T00:36:12.569Z,8.67
2018-06-22T00:38:40.054Z,11.13
2018-06-22T00:41:07.721Z,10.60
2018-06-22T00:43:35.556Z,6.87
2018-06-22T00:46:03.844Z,10.07
2018-06-22T00:48:31.518Z,8.43
2018-06-22T00:50:59.401Z,12.97
2018-06-22T00:53:38.549Z,8.27
2018-06-22T00:56:06.217Z,11.60
2018-06-22T00:58:33.896Z,7.10
2018-06-22T01:01:01.536Z,12.60
2018-06-22T01:03:29.195Z,7.17
2018-06-22T01:05:56.851Z,5.00
2018-06-22T01:08:24.609Z,8.80
2018-06-22T01:10:52.849Z,7.47
2018-06-22T01:13:20.550Z,6.47
2018-06-22T01:15:48.241Z,13.47
2018-06-22T01:18:15.821Z,11.10
2018-06-22T01:20:43.572Z,8.47
2018-06-22T01:23:11.205Z,9.70
2018-06-22T01:25:39.156Z,9.17
2018-06-22T01:28:06.984Z,6.83
2018-06-22T01:30:34.720Z,7.60
2018-06-22T01:33:02.448Z,8.27
2018-06-22T01:35:30.333Z,6.07
2018-06-22T01:37:57.990Z,10.30
2018-06-22T01:40:25.734Z,8.13
2018-06-22T01:42:53.384Z,8.37
2018-06-22T01:45:21.819Z,11.13
2018-06-22T01:47:49.475Z,9.57
2018-06-22T01:50:17.153Z,6.17
2018-06-22T01:52:44.812Z,11.00
2018-06-22T01:55:12.449Z,6.53
2018-06-22T01:57:40.008Z,8.50
2018-06-22T02:00:07.709Z,10.37
2018-06-22T02:02:35.620Z,8.97
2018-06-22T02:05:03.542Z,11.87
2018-06-22T02:07:31.257Z,10.33
2018-06-22T02:09:58.924Z,10.90
2018-06-22T02:12:26.779Z,13.93
2018-06-22T02:14:54.401Z,7.53
2018-06-22T02:17:22.144Z,9.07
2018-06-22T02:19:50.055Z,8.47
2018-06-22T02:22:17.714Z,9.73
2018-06-22T02:24:45.532Z,8.60
2018-06-22T02:27:13.320Z,8.37
2018-06-22T02:29:41.044Z,10.10
2018-06-22T02:32:08.711Z,10.50
2018-06-22T02:34:36.571Z,8.30
2018-06-22T02:37:04.270Z,7.17
2018-06-22T02:39:31.902Z,11.20
2018-06-22T02:41:59.554Z,8.00
2018-06-22T02:44:27.320Z,17.20
2018-06-22T02:46:54.971Z,8.80
2018-06-22T02:49:22.697Z,12.17
2018-06-22T02:51:50.626Z,11.60
2018-06-22T02:54:18.432Z,8.13
2018-06-22T02:56:46.139Z,9.07
2018-06-22T02:59:13.777Z,7.87
2018-06-22T03:01:41.724Z,11.47
2018-06-22T03:04:09.520Z,7.40
2018-06-22T03:06:37.153Z,12.60
2018-06-22T03:09:06.193Z,9.83
2018-06-22T03:11:33.953Z,10.53
2018-06-22T03:14:02.012Z,10.40
2018-06-22T03:16:30.000Z,10.30
2018-06-22T03:18:57.723Z,14.10
2018-06-22T03:21:26.396Z,7.60
2018-06-22T03:23:54.724Z,14.83
2018-06-22T03:26:22.379Z,9.63
2018-06-22T03:28:50.056Z,11.00
2018-06-22T03:31:17.761Z,11.67
2018-06-22T03:33:45.641Z,7.67
2018-06-22T03:36:13.277Z,5.20
2018-06-22T03:38:40.993Z,10.70
2018-06-22T03:41:08.607Z,8.17
2018-06-22T03:43:36.309Z,7.87
2018-06-22T03:46:04.655Z,7.53
2018-06-22T03:48:32.272Z,7.57
2018-06-22T03:50:59.929Z,9.57
2018-06-22T03:53:27.556Z,5.80
2018-06-22T03:55:55.167Z,6.40
2018-06-22T03:58:22.809Z,9.57
2018-06-22T04:00:50.606Z,8.90
2018-06-22T04:03:18.337Z,13.27
2018-06-22T04:05:46.311Z,6.90
2018-06-22T04:08:13.990Z,14.67
2018-06-22T04:10:41.633Z,11.03
2018-06-22T04:13:09.332Z,10.30
2018-06-22T04:15:37.216Z,13.63
2018-06-22T04:18:05.001Z,8.63
2018-06-22T04:20:32.875Z,9.07
2018-06-22T04:23:00.685Z,9.03
2018-06-22T04:25:28.335Z,11.30
2018-06-22T04:27:56.167Z,10.27
2018-06-22T04:30:24.566Z,13.77
2018-06-22T04:32:52.221Z,13.77
2018-06-22T04:35:19.893Z,12.77
2018-06-22T04:37:48.440Z,11.03
2018-06-22T04:40:16.096Z,16.43
2018-06-22T04:42:43.859Z,8.23
2018-06-22T04:45:11.570Z,13.23
2018-06-22T04:47:39.225Z,5.73
2018-06-22T04:50:06.897Z,10.03
2018-06-22T04:52:34.663Z,15.60
2018-06-22T04:55:02.282Z,13.67
2018-06-22T04:57:29.934Z,9.10
2018-06-22T04:59:57.565Z,12.30
2018-06-22T05:02:25.192Z,15.53
2018-06-22T05:04:52.849Z,12.47
2018-06-22T05:07:20.993Z,13.13
2018-06-22T05:09:49.482Z,12.70
2018-06-22T05:12:18.783Z,14.03
2018-06-22T05:14:46.660Z,14.70
2018-06-22T05:17:14.358Z,13.63
2018-06-22T05:19:42.192Z,13.07
2018-06-22T05:22:10.121Z,9.30
2018-06-22T05:24:37.745Z,10.87
2018-06-22T05:27:05.674Z,12.77
2018-06-22T05:29:33.775Z,13.67
2018-06-22T05:32:01.474Z,11.67
2018-06-22T05:34:29.244Z,17.50
2018-06-22T05:36:56.904Z,16.77
2018-06-22T05:39:24.663Z,11.87
2018-06-22T05:41:52.333Z,16.00
2018-06-22T05:44:19.963Z,22.03
2018-06-22T05:46:47.609Z,13.83
2018-06-22T05:49:15.255Z,15.67
2018-06-22T05:51:42.912Z,16.40
2018-06-22T05:54:10.666Z,12.07
2018-06-22T05:56:38.487Z,12.80
2018-06-22T05:59:06.045Z,13.40
2018-06-22T06:01:33.915Z,11.43
2018-06-22T06:04:01.589Z,12.23
2018-06-22T06:06:29.508Z,12.27
2018-06-22T06:08:57.538Z,12.07
2018-06-22T06:11:25.561Z,12.00
2018-06-22T06:13:53.436Z,16.70
2018-06-22T06:16:21.955Z,16.10
2018-06-22T06:18:49.602Z,13.10
2018-06-22T06:21:17.340Z,13.93
2018-06-22T06:23:44.982Z,21.70
2018-06-22T06:26:13.181Z,16.27
2018-06-22T06:28:41.630Z,17.23
2018-06-22T06:31:09.254Z,15.97
2018-06-22T06:33:37.092Z,20.17
2018-06-22T06:36:05.060Z,20.27
2018-06-22T06:38:32.810Z,11.80
2018-06-22T06:41:00.443Z,19.53
2018-06-22T06:43:28.087Z,14.30
2018-06-22T06:45:55.981Z,19.43
2018-06-22T06:48:23.609Z,21.27
2018-06-22T06:50:51.241Z,18.27
2018-06-22T06:53:18.910Z,20.53
2018-06-22T06:55:46.573Z,19.87
2018-06-22T06:58:15.263Z,15.83
2018-06-22T07:00:43.070Z,16.60
2018-06-22T07:03:10.828Z,19.60
2018-06-22T07:05:38.296Z,20.27
2018-06-22T07:08:06.048Z,21.23
2018-06-22T07:10:33.591Z,14.10
2018-06-22T07:13:01.096Z,21.30
2018-06-22T07:15:30.056Z,20.00
2018-06-22T07:17:57.629Z,16.30
2018-06-22T07:20:25.261Z,21.13
2018-06-22T07:22:52.890Z,15.63
2018-06-22T07:25:20.382Z,21.60
2018-06-22T07:27:48.010Z,22.23
2018-06-22T07:30:15.490Z,20.37
2018-06-22T07:32:43.162Z,20.67
2018-06-22T07:35:10.789Z,21.33
2018-06-22T07:37:38.279Z,13.70
2018-06-22T07:40:06.152Z,16.67
2018-06-22T07:42:33.601Z,20.87
2018-06-22T07:45:01.185Z,18.47
2018-06-22T07:47:29.149Z,17.17
2018-06-22T07:49:56.823Z,12.67
2018-06-22T07:52:24.579Z,23.80
2018-06-22T07:54:52.079Z,16.07
2018-06-22T07:57:19.560Z,19.13
2018-06-22T07:59:47.074Z,21.43
2018-06-22T08:02:14.901Z,16.70
2018-06-22T08:04:42.594Z,16.27
2018-06-22T08:07:11.289Z,11.50
2018-06-22T08:09:38.808Z,22.93
2018-06-22T08:12:06.445Z,21.10
2018-06-22T08:14:34.188Z,24.87
2018-06-22T08:17:01.792Z,32.10
2018-06-22T08:19:29.484Z,19.17
2018-06-22T08:21:56.991Z,14.17
2018-06-22T08:24:25.465Z,17.57
2018-06-22T08:26:53.141Z,15.37
2018-06-22T08:29:20.908Z,13.87
2018-06-22T08:31:48.428Z,16.53
2018-06-22T08:34:15.999Z,15.03
2018-06-22T08:36:43.609Z,16.27
2018-06-22T08:39:11.334Z,16.00
2018-06-22T08:41:39.271Z,14.67
2018-06-22T08:44:06.759Z,19.63
2018-06-22T08:46:34.241Z,15.73
2018-06-22T08:49:01.827Z,13.07
2018-06-22T08:51:29.445Z,18.37
2018-06-22T08:53:56.985Z,11.60
2018-06-22T09:00:52.870Z,8.63
2018-06-22T09:03:21.174Z,9.20
2018-06-22T09:05:49.488Z,14.80
2018-06-22T09:08:17.657Z,10.63
2018-06-22T09:10:45.934Z,16.27
2018-06-22T09:13:20.194Z,13.23
2018-06-22T09:15:48.363Z,16.93
2018-06-22T09:18:16.481Z,16.23
2018-06-22T09:20:44.541Z,9.50
2018-06-22T09:23:12.743Z,16.07
2018-06-22T09:25:41.078Z,20.13
2018-06-22T09:28:09.219Z,14.97
2018-06-22T09:30:37.529Z,17.00
2018-06-22T09:33:05.820Z,12.63
2018-06-22T09:35:33.923Z,16.83
2018-06-22T09:38:02.123Z,15.30
2018-06-22T09:40:30.262Z,18.00
2018-06-22T09:42:58.490Z,15.83
2018-06-22T09:45:26.728Z,19.77
2018-06-22T09:47:55.010Z,13.90
2018-06-22T09:50:23.140Z,15.27
2018-06-22T09:52:51.289Z,20.60
2018-06-22T09:55:19.407Z,14.57
2018-06-22T09:57:47.558Z,15.93
2018-06-22T10:00:17.358Z,22.60
2018-06-22T10:02:45.948Z,15.03
2018-06-22T10:05:14.037Z,15.63
2018-06-22T10:07:42.262Z,19.43
2018-06-22T10:10:10.376Z,14.90
2018-06-22T10:12:38.439Z,20.13
2018-06-22T10:15:06.774Z,22.67
2018-06-22T10:17:34.981Z,16.50
2018-06-22T10:20:03.153Z,19.17
2018-06-22T10:22:31.284Z,15.40
2018-06-22T10:24:59.430Z,17.43
2018-06-22T10:27:28.274Z,11.67
2018-06-22T10:29:56.483Z,21.70
2018-06-22T10:32:24.585Z,15.80
2018-06-22T10:34:52.808Z,16.13
2018-06-22T10:37:20.998Z,14.73
2018-06-22T10:39:49.122Z,12.07
2018-06-22T10:42:17.463Z,14.23
2018-06-22T10:44:45.624Z,15.40
2018-06-22T10:47:13.780Z,12.30
2018-06-22T10:49:41.965Z,19.17
2018-06-22T10:52:10.105Z,22.70
2018-06-22T10:54:39.083Z,16.67
2018-06-22T10:57:07.350Z,17.40
2018-06-22T10:59:35.547Z,15.17
2018-06-22T11:02:03.660Z,14.07
2018-06-22T11:04:32.557Z,10.03
2018-06-22T11:07:01.383Z,12.30
2018-06-22T11:09:29.558Z,11.70
2018-06-22T11:11:58.197Z,10.70
2018-06-22T11:14:26.344Z,12.37
2018-06-22T11:16:54.708Z,10.93
2018-06-22T11:19:22.945Z,15.07
2018-06-22T11:21:51.043Z,11.90
2018-06-22T11:24:19.162Z,11.30
2018-06-22T11:26:47.357Z,13.67
2018-06-22T11:29:15.676Z,15.97
2018-06-22T11:31:43.894Z,13.33
2018-06-22T11:34:12.224Z,13.47
2018-06-22T11:36:40.476Z,12.57
2018-06-22T11:39:10.525Z,14.90
2018-06-22T11:41:39.741Z,18.53
2018-06-22T11:44:08.357Z,7.00
2018-06-22T11:46:36.616Z,11.07
2018-06-22T11:49:05.091Z,8.70
2018-06-22T11:51:33.314Z,7.23
2018-06-22T11:54:01.565Z,9.70
2018-06-22T11:56:29.839Z,10.90
2018-06-22T11:58:57.991Z,10.70
2018-06-22T12:01:26.243Z,11.73
2018-06-22T12:03:54.947Z,15.37
2018-06-22T12:06:23.153Z,12.93
2018-06-22T12:08:51.362Z,11.70
2018-06-22T12:11:19.629Z,15.20
2018-06-22T12:13:47.780Z,12.07
2018-06-22T12:16:15.978Z,16.93
2018-06-22T12:18:44.663Z,13.27
2018-06-22T12:21:12.932Z,13.27
2018-06-22T12:23:41.254Z,15.00
2018-06-22T12:26:09.369Z,17.53
2018-06-22T12:28:37.670Z,14.00
2018-06-22T12:31:06.058Z,11.53
2018-06-22T12:33:34.462Z,10.13
2018-06-22T12:36:03.829Z,10.93
2018-06-22T12:38:32.169Z,11.43
2018-06-22T12:41:00.421Z,9.40
2018-06-22T12:43:28.528Z,9.47
2018-06-22T12:45:56.790Z,12.00
2018-06-22T12:48:24.823Z,13.97
2018-06-22T12:50:53.066Z,12.83
2018-06-22T12:53:21.164Z,13.57
2018-06-22T12:55:49.567Z,14.93
2018-06-22T12:58:17.783Z,10.13
2018-06-22T13:00:46.121Z,7.97
2018-06-22T13:03:14.251Z,10.40
2018-06-22T13:05:43.287Z,9.23
2018-06-22T13:08:11.435Z,8.00
2018-06-22T13:10:39.499Z,7.37
2018-06-22T13:13:07.695Z,8.13
2018-06-22T13:15:35.908Z,9.23
2018-06-22T13:18:04.274Z,9.60
2018-06-22T13:20:32.567Z,10.00
2018-06-22T13:23:00.907Z,9.37
2018-06-22T13:25:29.228Z,13.60
2018-06-22T13:27:57.415Z,10.07
2018-06-22T13:30:25.618Z,9.23
2018-06-22T13:32:53.847Z,10.73
2018-06-22T13:35:22.273Z,7.47
2018-06-22T13:37:50.359Z,10.80
2018-06-22T13:40:19.234Z,9.43
2018-06-22T13:42:47.478Z,12.37
2018-06-22T13:45:15.696Z,14.17
2018-06-22T13:47:43.972Z,12.73
2018-06-22T13:50:12.210Z,11.97
2018-06-22T13:52:40.806Z,17.73
2018-06-22T13:55:09.149Z,17.27
2018-06-22T13:57:37.402Z,13.37
2018-06-22T14:00:05.870Z,19.63
2018-06-22T14:02:34.100Z,18.43
2018-06-22T14:06:08.363Z,19.00
2018-06-22T14:08:36.534Z,13.93
2018-06-22T14:11:04.710Z,20.80
2018-06-22T14:13:32.934Z,17.23
2018-06-22T14:16:01.105Z,23.20
2018-06-22T14:18:29.384Z,21.27
2018-06-22T14:20:57.745Z,16.90
2018-06-22T14:23:25.951Z,16.40
2018-06-22T14:25:54.727Z,29.23
2018-06-22T14:28:22.959Z,23.90
2018-06-22T14:30:51.230Z,21.07
2018-06-22T14:33:19.572Z,27.20
2018-06-22T14:35:47.831Z,25.50
2018-06-22T14:38:15.981Z,22.60
2018-06-22T14:40:44.201Z,26.23
2018-06-22T14:43:12.385Z,25.03
2018-06-22T14:45:40.611Z,25.53
2018-06-22T14:48:08.939Z,20.13
2018-06-22T14:50:37.129Z,30.27
2018-06-22T14:53:09.860Z,26.27
2018-06-22T14:55:43.721Z,23.73
2018-06-22T14:58:17.365Z,19.80
2018-06-22T15:00:51.179Z,23.20
2018-06-22T15:03:25.484Z,20.13
2018-06-22T15:05:59.349Z,20.43
2018-06-22T15:08:27.474Z,17.03
2018-06-22T15:10:55.639Z,18.53
2018-06-22T15:13:23.713Z,20.10
2018-06-22T15:15:52.025Z,17.03
2018-06-22T15:18:20.953Z,19.30
2018-06-22T15:20:49.123Z,17.20
2018-06-22T15:23:17.230Z,18.77
2018-06-22T15:25:45.295Z,17.23
2018-06-22T15:28:13.442Z,20.90
2018-06-22T15:30:41.558Z,19.83
2018-06-22T15:33:15.272Z,21.50
2018-06-22T15:35:49.087Z,21.80
2018-06-22T15:38:23.721Z,27.00
2018-06-22T15:40:57.562Z,17.77
2018-06-22T15:45:32.502Z,27.67
2018-06-22T15:48:06.851Z,20.23
2018-06-22T15:50:40.708Z,26.63
2018-06-22T15:53:15.117Z,25.37
2018-06-22T15:55:45.264Z,25.43
2018-06-22T15:58:13.476Z,24.43
2018-06-22T16:00:41.690Z,16.13
2018-06-22T19:19:45.430Z,22.90
2018-06-22T19:22:13.535Z,25.83
2018-06-22T19:24:41.641Z,20.57
2018-06-22T19:27:09.762Z,20.10
2018-06-22T19:29:37.874Z,28.63
2018-06-22T19:32:06.104Z,21.40
2018-06-22T19:34:39.888Z,25.40
2018-06-22T19:37:07.892Z,26.20
2018-06-22T19:39:35.997Z,20.10
2018-06-22T19:42:04.156Z,23.87
2018-06-22T19:46:41.626Z,17.50
2018-06-22T19:49:15.306Z,27.70
2018-06-22T19:51:49.010Z,26.63
2018-06-22T19:54:17.161Z,23.27
2018-06-22T22:43:15.995Z,19.65
2018-06-22T22:45:44.347Z,17.97
2018-06-22T22:48:12.504Z,14.67
2018-06-22T22:50:40.663Z,16.83
2018-06-22T22:53:08.770Z,20.33
2018-06-22T22:55:36.974Z,24.67
2018-06-22T22:58:05.157Z,15.37
2018-06-22T23:00:33.210Z,19.30
2018-06-22T23:03:01.300Z,19.27
2018-06-22T23:05:29.477Z,19.87
2018-06-22T23:07:57.694Z,21.83
2018-06-22T23:10:26.496Z,16.53
2018-06-22T23:12:54.672Z,24.50
2018-06-22T23:15:22.878Z,21.20
2018-06-22T23:17:51.175Z,15.83
2018-06-22T23:20:19.232Z,16.23
2018-06-22T23:23:04.269Z,16.53
2018-06-22T23:25:32.424Z,16.63
2018-06-22T23:28:00.646Z,15.57
2018-06-22T23:30:28.702Z,17.60
2018-06-22T23:32:57.277Z,19.23
2018-06-22T23:35:25.715Z,14.90
2018-06-22T23:37:55.015Z,17.70
2018-06-22T23:40:23.477Z,15.63
2018-06-22T23:42:51.624Z,21.97
2018-06-22T23:45:20.053Z,15.57
2018-06-22T23:47:48.806Z,21.03
2018-06-22T23:50:16.869Z,16.07
2018-06-22T23:52:45.133Z,19.50
2018-06-22T23:55:13.427Z,17.83
2018-06-22T23:57:41.679Z,18.80
